sensor_id;sensor_type;location;lat;lon;timestamp;pressure;altitude;pressure_sealevel;temperature;humidity
43838;BME280;65998;46.256;7.534;2023-06-22T00:04:29;87344.22;;;21.14;60.86
43838;BME280;65998;46.256;7.534;2023-06-22T00:06:55;87341.41;;;21.14;60.87
43838;BME280;65998;46.256;7.534;2023-06-22T00:09:21;87338.63;;;21.14;60.45
43838;BME280;65998;46.256;7.534;2023-06-22T00:11:47;87337.28;;;21.13;60.77
43838;BME280;65998;46.256;7.534;2023-06-22T00:14:12;87355.41;;;21.14;60.68
43838;BME280;65998;46.256;7.534;2023-06-22T00:16:38;87354.72;;;21.14;60.68
43838;BME280;65998;46.256;7.534;2023-06-22T00:19:04;87341.41;;;21.14;60.82
43838;BME280;65998;46.256;7.534;2023-06-22T00:21:30;87334.47;;;21.13;60.50
43838;BME280;65998;46.256;7.534;2023-06-22T00:23:55;87336.59;;;21.13;60.68
43838;BME280;65998;46.256;7.534;2023-06-22T00:26:21;87342.19;;;21.13;60.63
43838;BME280;65998;46.256;7.534;2023-06-22T00:28:47;87344.22;;;21.14;60.73
43838;BME280;65998;46.256;7.534;2023-06-22T00:31:13;87354.03;;;21.13;60.76
43838;BME280;65998;46.256;7.534;2023-06-22T00:33:39;87351.91;;;21.14;60.67
43838;BME280;65998;46.256;7.534;2023-06-22T00:36:05;87354.72;;;21.14;60.53
43838;BME280;65998;46.256;7.534;2023-06-22T00:38:31;87344.31;;;21.12;60.35
43838;BME280;65998;46.256;7.534;2023-06-22T00:40:57;87348.44;;;21.13;60.72
43838;BME280;65998;46.256;7.534;2023-06-22T00:43:23;87344.97;;;21.13;60.52
43838;BME280;65998;46.256;7.534;2023-06-22T00:45:49;87336.59;;;21.13;60.48
43838;BME280;65998;46.256;7.534;2023-06-22T00:48:15;87331.69;;;21.13;60.47
43838;BME280;65998;46.256;7.534;2023-06-22T00:50:41;87341.50;;;21.12;60.77
43838;BME280;65998;46.256;7.534;2023-06-22T00:53:08;87335.16;;;21.14;60.30
43838;BME280;65998;46.256;7.534;2023-06-22T00:55:36;87342.19;;;21.13;60.35
43838;BME280;65998;46.256;7.534;2023-06-22T00:58:03;87339.38;;;21.13;60.30
43838;BME280;65998;46.256;7.534;2023-06-22T01:00:29;87331.69;;;21.13;60.65
43838;BME280;65998;46.256;7.534;2023-06-22T01:02:55;87330.31;;;21.12;60.40
43838;BME280;65998;46.256;7.534;2023-06-22T01:05:22;87333.81;;;21.13;60.69
43838;BME280;65998;46.256;7.534;2023-06-22T01:08:16;87328.88;;;21.13;60.57
43838;BME280;65998;46.256;7.534;2023-06-22T01:11:09;87340.75;;;21.14;60.22
43838;BME280;65998;46.256;7.534;2023-06-22T01:14:01;87337.28;;;21.13;60.54
43838;BME280;65998;46.256;7.534;2023-06-22T01:16:31;87328.88;;;21.13;60.16
43838;BME280;65998;46.256;7.534;2023-06-22T01:19:05;87334.47;;;21.13;60.27
43838;BME280;65998;46.256;7.534;2023-06-22T01:21:35;87335.25;;;21.12;60.31
43838;BME280;65998;46.256;7.534;2023-06-22T01:24:10;87342.84;;;21.13;60.25
43838;BME280;65998;46.256;7.534;2023-06-22T01:26:57;87324.75;;;21.12;60.38
43838;BME280;65998;46.256;7.534;2023-06-22T01:29:27;87329.66;;;21.12;60.21
43838;BME280;65998;46.256;7.534;2023-06-22T01:31:54;87333.13;;;21.12;60.43
43838;BME280;65998;46.256;7.534;2023-06-22T01:34:22;87317.78;;;21.11;60.63
43838;BME280;65998;46.256;7.534;2023-06-22T01:36:49;87312.22;;;21.11;60.28
43838;BME280;65998;46.256;7.534;2023-06-22T01:39:16;87323.38;;;21.11;60.32
43838;BME280;65998;46.256;7.534;2023-06-22T01:41:43;87319.25;;;21.10;60.51
43838;BME280;65998;46.256;7.534;2023-06-22T01:44:10;87333.88;;;21.11;60.14
43838;BME280;65998;46.256;7.534;2023-06-22T01:46:38;87323.38;;;21.11;60.39
43838;BME280;65998;46.256;7.534;2023-06-22T01:49:05;87312.22;;;21.11;60.29
43838;BME280;65998;46.256;7.534;2023-06-22T01:51:32;87322.72;;;21.11;60.08
43838;BME280;65998;46.256;7.534;2023-06-22T01:53:57;87322.72;;;21.11;60.37
43838;BME280;65998;46.256;7.534;2023-06-22T01:56:23;87305.25;;;21.10;60.10
43838;BME280;65998;46.256;7.534;2023-06-22T02:02:10;87303.81;;;21.11;60.44
43838;BME280;65998;46.256;7.534;2023-06-22T02:04:52;87289.19;;;21.11;60.33
43838;BME280;65998;46.256;7.534;2023-06-22T02:07:21;87291.28;;;21.10;60.45
43838;BME280;65998;46.256;7.534;2023-06-22T02:09:50;87294.09;;;21.10;60.17
43838;BME280;65998;46.256;7.534;2023-06-22T02:12:24;87285.03;;;21.10;60.47
43838;BME280;65998;46.256;7.534;2023-06-22T02:14:51;87282.25;;;21.10;60.04
43838;BME280;65998;46.256;7.534;2023-06-22T02:17:18;87278.75;;;21.09;60.36
43838;BME280;65998;46.256;7.534;2023-06-22T02:19:44;87285.78;;;21.08;60.12
43838;BME280;65998;46.256;7.534;2023-06-22T02:22:10;87272.50;;;21.09;60.03
43838;BME280;65998;46.256;7.534;2023-06-22T02:24:35;87282.25;;;21.10;60.42
43838;BME280;65998;46.256;7.534;2023-06-22T02:27:02;87284.34;;;21.09;60.13
43838;BME280;65998;46.256;7.534;2023-06-22T02:29:28;87275.28;;;21.09;60.08
43838;BME280;65998;46.256;7.534;2023-06-22T02:31:55;87276.66;;;21.10;60.23
43838;BME280;65998;46.256;7.534;2023-06-22T02:34:23;87273.19;;;21.09;60.18
43838;BME280;65998;46.256;7.534;2023-06-22T02:36:49;87282.31;;;21.08;60.26
43838;BME280;65998;46.256;7.534;2023-06-22T02:39:19;87280.88;;;21.09;60.18
43838;BME280;65998;46.256;7.534;2023-06-22T02:41:45;87289.94;;;21.09;60.12
43838;BME280;65998;46.256;7.534;2023-06-22T02:44:11;87282.31;;;21.08;60.27
43838;BME280;65998;46.256;7.534;2023-06-22T02:46:37;87280.22;;;21.08;60.18
43838;BME280;65998;46.256;7.534;2023-06-22T02:49:03;87288.59;;;21.08;60.48
43838;BME280;65998;46.256;7.534;2023-06-22T02:51:32;87289.25;;;21.09;60.34
43838;BME280;65998;46.256;7.534;2023-06-22T02:53:58;87270.47;;;21.07;60.17
43838;BME280;65998;46.256;7.534;2023-06-22T02:56:24;87279.53;;;21.08;60.38
43838;BME280;65998;46.256;7.534;2023-06-22T02:58:51;87280.22;;;21.08;60.44
43838;BME280;65998;46.256;7.534;2023-06-22T03:01:17;87285.78;;;21.08;60.21
43838;BME280;65998;46.256;7.534;2023-06-22T03:03:43;87281.66;;;21.07;60.03
43838;BME280;65998;46.256;7.534;2023-06-22T03:06:09;87285.13;;;21.08;60.16
43838;BME280;65998;46.256;7.534;2023-06-22T03:08:34;87278.84;;;21.07;60.18
43838;BME280;65998;46.256;7.534;2023-06-22T03:11:00;87278.84;;;21.07;60.24
43838;BME280;65998;46.256;7.534;2023-06-22T03:13:27;87281.66;;;21.07;60.33
43838;BME280;65998;46.256;7.534;2023-06-22T03:15:53;87278.84;;;21.07;60.19
43838;BME280;65998;46.256;7.534;2023-06-22T03:18:18;87274.72;;;21.06;59.97
43838;BME280;65998;46.256;7.534;2023-06-22T03:20:44;87271.91;;;21.06;60.46
43838;BME280;65998;46.256;7.534;2023-06-22T03:23:10;87271.22;;;21.06;60.06
43838;BME280;65998;46.256;7.534;2023-06-22T03:25:36;87276.81;;;21.06;60.38
43838;BME280;65998;46.256;7.534;2023-06-22T03:28:01;87275.38;;;21.07;59.96
43838;BME280;65998;46.256;7.534;2023-06-22T03:30:27;87264.97;;;21.05;59.95
43838;BME280;65998;46.256;7.534;2023-06-22T03:32:53;87274.03;;;21.06;60.35
43838;BME280;65998;46.256;7.534;2023-06-22T03:35:19;87270.56;;;21.05;60.41
43838;BME280;65998;46.256;7.534;2023-06-22T03:37:45;87264.28;;;21.04;60.00
43838;BME280;65998;46.256;7.534;2023-06-22T03:40:11;87261.41;;;21.07;60.32
43838;BME280;65998;46.256;7.534;2023-06-22T03:42:37;87270.56;;;21.05;60.30
43838;BME280;65998;46.256;7.534;2023-06-22T03:45:03;87265.66;;;21.06;60.26
43838;BME280;65998;46.256;7.534;2023-06-22T03:47:29;87269.88;;;21.04;60.19
43838;BME280;65998;46.256;7.534;2023-06-22T03:49:55;87261.50;;;21.04;60.44
43838;BME280;65998;46.256;7.534;2023-06-22T03:52:21;87271.22;;;21.06;60.46
43838;BME280;65998;46.256;7.534;2023-06-22T03:54:48;87253.78;;;21.05;60.14
43838;BME280;65998;46.256;7.534;2023-06-22T03:57:13;87260.06;;;21.06;60.36
43838;BME280;65998;46.256;7.534;2023-06-22T03:59:39;87258.72;;;21.04;60.09
43838;BME280;65998;46.256;7.534;2023-06-22T04:02:05;87261.50;;;21.04;60.01
43838;BME280;65998;46.256;7.534;2023-06-22T04:04:31;87260.16;;;21.03;60.12
43838;BME280;65998;46.256;7.534;2023-06-22T04:06:57;87241.25;;;21.04;60.40
43838;BME280;65998;46.256;7.534;2023-06-22T04:09:24;87235.69;;;21.04;59.96
43838;BME280;65998;46.256;7.534;2023-06-22T04:11:49;87246.19;;;21.03;60.28
43838;BME280;65998;46.256;7.534;2023-06-22T04:14:15;87253.88;;;21.03;59.94
43838;BME280;65998;46.256;7.534;2023-06-22T04:16:41;87246.19;;;21.03;60.21
43838;BME280;65998;46.256;7.534;2023-06-22T04:19:07;87231.53;;;21.03;60.42
43838;BME280;65998;46.256;7.534;2023-06-22T04:21:32;87222.47;;;21.02;60.11
43838;BME280;65998;46.256;7.534;2023-06-22T04:23:58;87231.53;;;21.03;59.99
43838;BME280;65998;46.256;7.534;2023-06-22T04:26:24;87231.53;;;21.03;60.34
43838;BME280;65998;46.256;7.534;2023-06-22T04:28:50;87233.66;;;21.02;60.43
43838;BME280;65998;46.256;7.534;2023-06-22T04:31:15;87219.69;;;21.02;60.37
43838;BME280;65998;46.256;7.534;2023-06-22T04:33:41;87223.81;;;21.03;60.28
43838;BME280;65998;46.256;7.534;2023-06-22T04:36:07;87222.47;;;21.02;60.13
43838;BME280;65998;46.256;7.534;2023-06-22T04:38:33;87218.31;;;21.01;60.37
43838;BME280;65998;46.256;7.534;2023-06-22T04:40:59;87219.00;;;21.02;60.16
43838;BME280;65998;46.256;7.534;2023-06-22T04:43:25;87218.31;;;21.01;59.98
43838;BME280;65998;46.256;7.534;2023-06-22T04:45:50;87221.13;;;21.01;60.40
43838;BME280;65998;46.256;7.534;2023-06-22T04:48:16;87219.69;;;21.02;60.18
43838;BME280;65998;46.256;7.534;2023-06-22T04:50:42;87232.28;;;21.01;60.16
43838;BME280;65998;46.256;7.534;2023-06-22T04:53:08;87238.56;;;21.02;60.18
43838;BME280;65998;46.256;7.534;2023-06-22T04:55:34;87226.72;;;21.01;60.01
43838;BME280;65998;46.256;7.534;2023-06-22T04:58:00;87226.03;;;21.01;60.35
43838;BME280;65998;46.256;7.534;2023-06-22T05:00:25;87241.34;;;21.02;59.97
43838;BME280;65998;46.256;7.534;2023-06-22T05:02:51;87232.97;;;21.02;60.22
43838;BME280;65998;46.256;7.534;2023-06-22T05:05:17;87225.34;;;21.00;59.97
43838;BME280;65998;46.256;7.534;2023-06-22T05:07:45;87230.19;;;21.02;60.10
43838;BME280;65998;46.256;7.534;2023-06-22T05:10:11;87238.56;;;21.02;60.14
43838;BME280;65998;46.256;7.534;2023-06-22T05:12:38;87240.00;;;21.01;60.33
43838;BME280;65998;46.256;7.534;2023-06-22T05:15:06;87240.00;;;21.01;60.04
43838;BME280;65998;46.256;7.534;2023-06-22T05:17:33;87249.81;;;21.00;60.06
43838;BME280;65998;46.256;7.534;2023-06-22T05:19:59;87251.19;;;21.01;60.12
43838;BME280;65998;46.256;7.534;2023-06-22T05:22:24;87249.06;;;21.01;60.17
43838;BME280;65998;46.256;7.534;2023-06-22T05:24:50;87254.66;;;21.01;60.22
43838;BME280;65998;46.256;7.534;2023-06-22T05:27:16;87259.56;;;21.01;60.12
43838;BME280;65998;46.256;7.534;2023-06-22T05:29:42;87256.75;;;21.01;60.07
43838;BME280;65998;46.256;7.534;2023-06-22T05:32:08;87274.88;;;21.02;60.45
43838;BME280;65998;46.256;7.534;2023-06-22T05:34:34;87268.63;;;21.01;60.25
43838;BME280;65998;46.256;7.534;2023-06-22T05:37:00;87263.03;;;21.01;60.24
43838;BME280;65998;46.256;7.534;2023-06-22T05:39:26;87272.75;;;21.02;60.14
43838;BME280;65998;46.256;7.534;2023-06-22T05:41:52;87290.97;;;21.01;60.59
43838;BME280;65998;46.256;7.534;2023-06-22T05:44:18;87298.66;;;21.01;60.51
43838;BME280;65998;46.256;7.534;2023-06-22T05:46:45;87298.66;;;21.01;60.17
43838;BME280;65998;46.256;7.534;2023-06-22T05:49:11;87294.44;;;21.02;60.38
43838;BME280;65998;46.256;7.534;2023-06-22T05:51:38;87307.72;;;21.01;60.09
43838;BME280;65998;46.256;7.534;2023-06-22T05:54:04;87323.81;;;21.01;60.50
43838;BME280;65998;46.256;7.534;2023-06-22T05:56:30;87311.97;;;21.00;60.25
43838;BME280;65998;46.256;7.534;2023-06-22T05:58:56;87322.38;;;21.02;60.35
43838;BME280;65998;46.256;7.534;2023-06-22T06:01:22;87323.81;;;21.01;60.22
43838;BME280;65998;46.256;7.534;2023-06-22T06:03:47;87335.66;;;21.01;60.56
43838;BME280;65998;46.256;7.534;2023-06-22T06:06:13;87334.31;;;21.00;60.53
43838;BME280;65998;46.256;7.534;2023-06-22T06:08:39;87337.78;;;21.01;60.39
43838;BME280;65998;46.256;7.534;2023-06-22T06:11:05;87346.16;;;21.01;60.43
43838;BME280;65998;46.256;7.534;2023-06-22T06:13:31;87344.72;;;21.02;60.22
43838;BME280;65998;46.256;7.534;2023-06-22T06:15:57;87345.50;;;21.00;60.43
43838;BME280;65998;46.256;7.534;2023-06-22T06:18:23;87342.69;;;21.00;60.59
43838;BME280;65998;46.256;7.534;2023-06-22T06:20:49;87342.69;;;21.00;60.50
43838;BME280;65998;46.256;7.534;2023-06-22T06:23:14;87349.63;;;21.01;60.77
43838;BME280;65998;46.256;7.534;2023-06-22T06:25:40;87354.53;;;21.01;60.62
43838;BME280;65998;46.256;7.534;2023-06-22T06:28:06;87356.66;;;21.00;60.78
43838;BME280;65998;46.256;7.534;2023-06-22T06:30:32;87358.00;;;21.01;60.78
43838;BME280;65998;46.256;7.534;2023-06-22T06:32:58;87367.16;;;21.00;60.76
43838;BME280;65998;46.256;7.534;2023-06-22T06:35:23;87365.03;;;21.00;60.59
43838;BME280;65998;46.256;7.534;2023-06-22T06:37:50;87381.72;;;21.02;60.66
43838;BME280;65998;46.256;7.534;2023-06-22T06:40:18;87387.41;;;21.00;60.80
43838;BME280;65998;46.256;7.534;2023-06-22T06:42:45;87379.69;;;21.01;60.51
43838;BME280;65998;46.256;7.534;2023-06-22T06:45:23;87381.03;;;21.02;60.83
43838;BME280;65998;46.256;7.534;2023-06-22T06:47:50;87387.41;;;21.00;60.73
43838;BME280;65998;46.256;7.534;2023-06-22T06:50:17;87392.97;;;21.00;60.57
43838;BME280;65998;46.256;7.534;2023-06-22T06:52:43;87388.06;;;21.01;60.72
43838;BME280;65998;46.256;7.534;2023-06-22T06:55:09;87388.06;;;21.01;60.99
43838;BME280;65998;46.256;7.534;2023-06-22T06:57:35;87391.53;;;21.01;60.88
43838;BME280;65998;46.256;7.534;2023-06-22T07:00:02;87384.59;;;21.00;60.71
43838;BME280;65998;46.256;7.534;2023-06-22T07:02:28;87396.44;;;21.01;60.63
43838;BME280;65998;46.256;7.534;2023-06-22T07:04:54;87401.38;;;21.00;60.78
43838;BME280;65998;46.256;7.534;2023-06-22T07:07:20;87403.41;;;21.02;60.64
43838;BME280;65998;46.256;7.534;2023-06-22T07:09:46;87404.84;;;21.01;60.90
43838;BME280;65998;46.256;7.534;2023-06-22T07:12:11;87406.94;;;21.00;60.85
43838;BME280;65998;46.256;7.534;2023-06-22T07:14:37;87407.63;;;21.01;60.63
43838;BME280;65998;46.256;7.534;2023-06-22T07:17:04;87411.09;;;21.01;60.80
43838;BME280;65998;46.256;7.534;2023-06-22T07:19:30;87410.41;;;21.01;61.07
43838;BME280;65998;46.256;7.534;2023-06-22T07:21:55;87402.72;;;21.01;61.19
43838;BME280;65998;46.256;7.534;2023-06-22T07:24:21;87404.16;;;21.00;60.75
43838;BME280;65998;46.256;7.534;2023-06-22T07:26:48;87393.66;;;21.01;61.14
43838;BME280;65998;46.256;7.534;2023-06-22T07:29:14;87399.25;;;21.01;61.00
43838;BME280;65998;46.256;7.534;2023-06-22T07:31:40;87395.09;;;21.00;60.74
43838;BME280;65998;46.256;7.534;2023-06-22T07:34:06;87385.28;;;21.01;61.22
43838;BME280;65998;46.256;7.534;2023-06-22T07:36:32;87382.47;;;21.01;60.98
43838;BME280;65998;46.256;7.534;2023-06-22T07:38:58;87379.69;;;21.01;60.88
43838;BME280;65998;46.256;7.534;2023-06-22T07:41:23;87388.06;;;21.01;60.84
43838;BME280;65998;46.256;7.534;2023-06-22T07:43:49;87379.69;;;21.01;60.73
43838;BME280;65998;46.256;7.534;2023-06-22T07:46:15;87397.13;;;21.01;60.96
43838;BME280;65998;46.256;7.534;2023-06-22T07:48:41;87404.84;;;21.01;60.88
43838;BME280;65998;46.256;7.534;2023-06-22T07:51:07;87392.97;;;21.00;60.84
43838;BME280;65998;46.256;7.534;2023-06-22T07:53:33;87385.28;;;21.01;60.77
43838;BME280;65998;46.256;7.534;2023-06-22T07:55:59;87394.34;;;21.01;60.91
43838;BME280;65998;46.256;7.534;2023-06-22T07:58:25;87385.28;;;21.01;61.12
43838;BME280;65998;46.256;7.534;2023-06-22T08:00:50;87378.34;;;21.00;60.96
43838;BME280;65998;46.256;7.534;2023-06-22T08:03:16;87383.91;;;21.00;61.14
43838;BME280;65998;46.256;7.534;2023-06-22T08:05:42;87378.34;;;21.00;61.03
43838;BME280;65998;46.256;7.534;2023-06-22T08:08:08;87370.63;;;21.00;60.67
43838;BME280;65998;46.256;7.534;2023-06-22T08:10:34;87365.72;;;21.01;60.77
43838;BME280;65998;46.256;7.534;2023-06-22T08:13:00;87366.47;;;20.99;60.94
43838;BME280;65998;46.256;7.534;2023-06-22T08:15:26;87367.06;;;21.02;60.60
43838;BME280;65998;46.256;7.534;2023-06-22T08:17:52;87375.53;;;21.00;60.76
43838;BME280;65998;46.256;7.534;2023-06-22T08:20:17;87372.66;;;21.02;60.45
43838;BME280;65998;46.256;7.534;2023-06-22T08:22:44;87378.34;;;21.00;60.78
43838;BME280;65998;46.256;7.534;2023-06-22T08:25:10;87374.78;;;21.01;60.85
43838;BME280;65998;46.256;7.534;2023-06-22T08:27:36;87376.91;;;21.01;60.53
43838;BME280;65998;46.256;7.534;2023-06-22T08:30:03;87372.75;;;21.00;60.66
43838;BME280;65998;46.256;7.534;2023-06-22T08:32:29;87383.16;;;21.01;60.66
43838;BME280;65998;46.256;7.534;2023-06-22T08:34:56;87383.16;;;21.01;60.36
43838;BME280;65998;46.256;7.534;2023-06-22T08:37:23;87379.69;;;21.01;60.37
43838;BME280;65998;46.256;7.534;2023-06-22T08:39:49;87391.53;;;21.01;60.30
43838;BME280;65998;46.256;7.534;2023-06-22T08:42:15;87381.81;;;21.00;60.25
43838;BME280;65998;46.256;7.534;2023-06-22T08:44:40;87380.38;;;21.01;60.37
43838;BME280;65998;46.256;7.534;2023-06-22T08:47:06;87383.16;;;21.01;60.43
43838;BME280;65998;46.256;7.534;2023-06-22T08:49:32;87374.09;;;21.01;60.21
43838;BME280;65998;46.256;7.534;2023-06-22T08:51:58;87377.56;;;21.01;60.12
43838;BME280;65998;46.256;7.534;2023-06-22T08:54:24;87371.31;;;21.01;60.35
43838;BME280;65998;46.256;7.534;2023-06-22T08:56:50;87375.47;;;21.02;60.10
43838;BME280;65998;46.256;7.534;2023-06-22T08:59:15;87374.09;;;21.01;60.18
43838;BME280;65998;46.256;7.534;2023-06-22T09:01:41;87372.66;;;21.02;60.36
43838;BME280;65998;46.256;7.534;2023-06-22T09:04:07;87365.03;;;21.00;60.15
43838;BME280;65998;46.256;7.534;2023-06-22T09:06:33;87355.22;;;21.01;60.32
43838;BME280;65998;46.256;7.534;2023-06-22T09:08:58;87359.38;;;21.02;60.15
43838;BME280;65998;46.256;7.534;2023-06-22T09:11:25;87362.16;;;21.02;60.35
43838;BME280;65998;46.256;7.534;2023-06-22T09:13:50;87360.06;;;21.03;60.20
43838;BME280;65998;46.256;7.534;2023-06-22T09:16:17;87356.56;;;21.02;59.93
43838;BME280;65998;46.256;7.534;2023-06-22T09:18:42;87361.50;;;21.02;59.98
43838;BME280;65998;46.256;7.534;2023-06-22T09:21:08;87368.44;;;21.03;59.82
43838;BME280;65998;46.256;7.534;2023-06-22T09:23:34;87365.63;;;21.03;59.79
43838;BME280;65998;46.256;7.534;2023-06-22T09:26:00;87358.63;;;21.04;60.06
43838;BME280;65998;46.256;7.534;2023-06-22T09:28:25;87351.00;;;21.02;59.86
43838;BME280;65998;46.256;7.534;2023-06-22T09:30:51;87340.50;;;21.03;60.10
43838;BME280;65998;46.256;7.534;2023-06-22T09:33:17;87341.16;;;21.03;60.13
43838;BME280;65998;46.256;7.534;2023-06-22T09:35:43;87348.88;;;21.03;59.76
43838;BME280;65998;46.256;7.534;2023-06-22T09:38:09;87346.09;;;21.03;59.90
43838;BME280;65998;46.256;7.534;2023-06-22T09:40:35;87343.97;;;21.03;60.01
43838;BME280;65998;46.256;7.534;2023-06-22T09:43:00;87343.28;;;21.03;59.88
43838;BME280;65998;46.256;7.534;2023-06-22T09:45:26;87350.22;;;21.04;59.67
43838;BME280;65998;46.256;7.534;2023-06-22T09:47:52;87351.66;;;21.03;60.07
43838;BME280;65998;46.256;7.534;2023-06-22T09:50:18;87346.75;;;21.03;59.69
43838;BME280;65998;46.256;7.534;2023-06-22T09:52:43;87348.88;;;21.03;59.83
43838;BME280;65998;46.256;7.534;2023-06-22T09:55:09;87355.13;;;21.03;60.23
43838;BME280;65998;46.256;7.534;2023-06-22T09:57:35;87353.03;;;21.04;60.13
43838;BME280;65998;46.256;7.534;2023-06-22T10:00:01;87346.75;;;21.03;59.79
43838;BME280;65998;46.256;7.534;2023-06-22T10:02:27;87341.16;;;21.03;59.95
43838;BME280;65998;46.256;7.534;2023-06-22T10:04:53;87355.13;;;21.03;59.96
43838;BME280;65998;46.256;7.534;2023-06-22T10:07:18;87353.03;;;21.04;60.06
43838;BME280;65998;46.256;7.534;2023-06-22T10:09:44;87353.03;;;21.04;60.08
43838;BME280;65998;46.256;7.534;2023-06-22T10:12:10;87352.34;;;21.03;60.09
43838;BME280;65998;46.256;7.534;2023-06-22T10:14:36;87353.69;;;21.04;59.66
43838;BME280;65998;46.256;7.534;2023-06-22T10:17:02;87350.91;;;21.04;59.72
43838;BME280;65998;46.256;7.534;2023-06-22T10:19:28;87355.81;;;21.04;59.74
43838;BME280;65998;46.256;7.534;2023-06-22T10:21:54;87357.16;;;21.05;59.95
43838;BME280;65998;46.256;7.534;2023-06-22T10:24:20;87347.44;;;21.04;59.96
43838;BME280;65998;46.256;7.534;2023-06-22T10:26:45;87341.84;;;21.04;60.08
43838;BME280;65998;46.256;7.534;2023-06-22T10:29:11;87344.63;;;21.04;60.10
43838;BME280;65998;46.256;7.534;2023-06-22T10:31:37;87343.88;;;21.06;59.84
43838;BME280;65998;46.256;7.534;2023-06-22T10:34:03;87334.81;;;21.05;60.08
43838;BME280;65998;46.256;7.534;2023-06-22T10:36:28;87336.25;;;21.04;59.96
43838;BME280;65998;46.256;7.534;2023-06-22T10:38:54;87334.81;;;21.05;59.95
43838;BME280;65998;46.256;7.534;2023-06-22T10:41:20;87336.25;;;21.04;59.92
43838;BME280;65998;46.256;7.534;2023-06-22T10:43:46;87339.72;;;21.04;59.69
43838;BME280;65998;46.256;7.534;2023-06-22T10:46:12;87334.13;;;21.04;59.98
43838;BME280;65998;46.256;7.534;2023-06-22T10:48:38;87343.19;;;21.05;59.99
43838;BME280;65998;46.256;7.534;2023-06-22T10:51:04;87340.41;;;21.05;60.19
43838;BME280;65998;46.256;7.534;2023-06-22T10:53:30;87341.09;;;21.06;59.88
43838;BME280;65998;46.256;7.534;2023-06-22T10:55:55;87332.69;;;21.06;60.04
43838;BME280;65998;46.256;7.534;2023-06-22T10:58:21;87321.53;;;21.06;59.84
43838;BME280;65998;46.256;7.534;2023-06-22T11:00:47;87304.75;;;21.06;59.83
43838;BME280;65998;46.256;7.534;2023-06-22T11:03:13;87296.38;;;21.06;59.85
43838;BME280;65998;46.256;7.534;2023-06-22T11:05:38;87299.19;;;21.06;59.70
43838;BME280;65998;46.256;7.534;2023-06-22T11:08:04;87307.56;;;21.06;60.14
43838;BME280;65998;46.256;7.534;2023-06-22T11:10:30;87301.97;;;21.06;59.95
43838;BME280;65998;46.256;7.534;2023-06-22T11:12:56;87299.84;;;21.06;59.76
43838;BME280;65998;46.256;7.534;2023-06-22T11:15:22;87308.91;;;21.07;59.66
43838;BME280;65998;46.256;7.534;2023-06-22T11:17:48;87305.44;;;21.06;60.13
43838;BME280;65998;46.256;7.534;2023-06-22T11:20:13;87315.94;;;21.06;60.06
43838;BME280;65998;46.256;7.534;2023-06-22T11:22:40;87313.81;;;21.06;59.67
43838;BME280;65998;46.256;7.534;2023-06-22T11:25:07;87317.28;;;21.07;59.78
43838;BME280;65998;46.256;7.534;2023-06-22T11:27:33;87327.13;;;21.06;60.15
43838;BME280;65998;46.256;7.534;2023-06-22T11:29:59;87322.19;;;21.06;60.08
43838;BME280;65998;46.256;7.534;2023-06-22T11:32:25;87303.31;;;21.07;59.72
43838;BME280;65998;46.256;7.534;2023-06-22T11:34:50;87280.28;;;21.06;59.87
43838;BME280;65998;46.256;7.534;2023-06-22T11:37:16;87279.63;;;21.06;59.83
43838;BME280;65998;46.256;7.534;2023-06-22T11:39:42;87280.28;;;21.06;60.10
43838;BME280;65998;46.256;7.534;2023-06-22T11:42:09;87266.31;;;21.06;60.05
43838;BME280;65998;46.256;7.534;2023-06-22T11:44:35;87280.97;;;21.07;60.07
43838;BME280;65998;46.256;7.534;2023-06-22T11:47:01;87276.81;;;21.06;59.97
43838;BME280;65998;46.256;7.534;2023-06-22T11:49:27;87264.22;;;21.07;59.78
43838;BME280;65998;46.256;7.534;2023-06-22T11:51:53;87253.03;;;21.07;59.87
43838;BME280;65998;46.256;7.534;2023-06-22T11:54:19;87250.25;;;21.07;59.69
43838;BME280;65998;46.256;7.534;2023-06-22T11:56:45;87251.59;;;21.08;60.01
43838;BME280;65998;46.256;7.534;2023-06-22T11:59:10;87238.28;;;21.08;59.91
43838;BME280;65998;46.256;7.534;2023-06-22T12:01:36;87232.03;;;21.08;59.90
43838;BME280;65998;46.256;7.534;2023-06-22T12:04:02;87250.91;;;21.07;59.63
43838;BME280;65998;46.256;7.534;2023-06-22T12:06:28;87251.59;;;21.08;59.97
43838;BME280;65998;46.256;7.534;2023-06-22T12:08:53;87257.19;;;21.08;60.04
43838;BME280;65998;46.256;7.534;2023-06-22T12:11:19;87271.16;;;21.08;60.07
43838;BME280;65998;46.256;7.534;2023-06-22T12:13:45;87279.53;;;21.08;59.92
43838;BME280;65998;46.256;7.534;2023-06-22T12:16:11;87293.50;;;21.08;59.98
43838;BME280;65998;46.256;7.534;2023-06-22T12:18:37;87319.31;;;21.08;59.78
43838;BME280;65998;46.256;7.534;2023-06-22T12:21:02;87330.50;;;21.08;59.93
43838;BME280;65998;46.256;7.534;2023-06-22T12:23:28;87338.88;;;21.08;60.09
43838;BME280;65998;46.256;7.534;2023-06-22T12:25:54;87353.53;;;21.09;60.19
43838;BME280;65998;46.256;7.534;2023-06-22T12:28:20;87359.13;;;21.09;59.72
43838;BME280;65998;46.256;7.534;2023-06-22T12:30:45;87356.31;;;21.09;60.19
43838;BME280;65998;46.256;7.534;2023-06-22T12:33:11;87347.94;;;21.09;60.14
43838;BME280;65998;46.256;7.534;2023-06-22T12:35:37;87333.22;;;21.10;60.05
43838;BME280;65998;46.256;7.534;2023-06-22T12:38:03;87334.66;;;21.09;59.72
43838;BME280;65998;46.256;7.534;2023-06-22T12:40:29;87340.91;;;21.10;59.92
43838;BME280;65998;46.256;7.534;2023-06-22T12:42:54;87344.38;;;21.10;60.03
43838;BME280;65998;46.256;7.534;2023-06-22T12:45:20;87335.31;;;21.10;59.91
43838;BME280;65998;46.256;7.534;2023-06-22T12:47:46;87332.53;;;21.10;59.85
43838;BME280;65998;46.256;7.534;2023-06-22T12:50:12;87326.28;;;21.09;59.94
43838;BME280;65998;46.256;7.534;2023-06-22T12:52:38;87319.25;;;21.10;59.96
43838;BME280;65998;46.256;7.534;2023-06-22T12:55:05;87301.03;;;21.11;59.80
43838;BME280;65998;46.256;7.534;2023-06-22T12:57:31;87294.09;;;21.10;59.90
43838;BME280;65998;46.256;7.534;2023-06-22T12:59:57;87294.75;;;21.11;60.10
43838;BME280;65998;46.256;7.534;2023-06-22T13:02:23;87287.06;;;21.11;59.97